createdAt,value
2022-08-09T00:01:00.463Z,26.84
2022-08-09T00:04:03.731Z,26.82
2022-08-09T00:06:22.870Z,26.80
2022-08-09T00:08:53.312Z,26.78
2022-08-09T00:11:55.038Z,26.73
2022-08-09T00:14:21.745Z,26.71
2022-08-09T00:16:56.890Z,26.69
2022-08-09T00:19:27.582Z,26.69
2022-08-09T00:21:57.147Z,26.67
2022-08-09T00:24:27.197Z,26.65
2022-08-09T00:26:57.327Z,26.63
2022-08-09T00:29:39.594Z,26.60
2022-08-09T00:32:25.689Z,26.58
2022-08-09T00:34:56.430Z,26.56
2022-08-09T00:37:25.585Z,26.53
2022-08-09T00:40:12.078Z,26.51
2022-08-09T00:44:20.323Z,26.49
2022-08-09T00:45:35.178Z,26.45
2022-08-09T00:48:05.781Z,26.43
2022-08-09T00:50:37.835Z,26.42
2022-08-09T00:53:10.116Z,26.43
2022-08-09T00:56:04.438Z,26.43
2022-08-09T00:58:30.656Z,26.41
2022-08-09T01:01:00.901Z,26.41
2022-08-09T01:03:40.850Z,26.38
2022-08-09T01:06:25.523Z,26.36
2022-08-09T01:09:13.688Z,26.33
2022-08-09T01:11:59.019Z,26.32
2022-08-09T01:14:34.621Z,26.30
2022-08-09T01:17:11.608Z,26.27
2022-08-09T01:20:02.310Z,26.24
2022-08-09T01:24:03.466Z,26.21
2022-08-09T01:26:24.865Z,26.16
2022-08-09T01:28:57.144Z,26.12
2022-08-09T01:32:30.801Z,26.09
2022-08-09T01:34:22.199Z,26.03
2022-08-09T01:36:52.498Z,26.01
2022-08-09T01:39:23.306Z,25.99
2022-08-09T01:41:53.639Z,25.96
2022-08-09T01:44:28.110Z,25.95
2022-08-09T01:46:57.701Z,25.88
2022-08-09T01:49:39.102Z,25.87
2022-08-09T01:52:14.520Z,25.85
2022-08-09T01:54:45.758Z,25.85
2022-08-09T01:57:17.315Z,25.80
2022-08-09T01:59:53.472Z,25.77
2022-08-09T02:02:33.208Z,25.73
2022-08-09T02:05:15.375Z,25.69
2022-08-09T02:08:40.053Z,25.68
2022-08-09T02:10:41.069Z,25.66
2022-08-09T02:13:13.949Z,25.64
2022-08-09T02:15:50.253Z,25.62
2022-08-09T02:18:23.597Z,25.59
2022-08-09T02:20:58.860Z,25.54
2022-08-09T02:23:42.767Z,25.50
2022-08-09T02:26:26.994Z,25.46
2022-08-09T02:28:59.990Z,25.40
2022-08-09T02:31:34.214Z,25.33
2022-08-09T02:34:13.844Z,25.26
2022-08-09T02:37:03.299Z,25.20
2022-08-09T02:39:42.821Z,25.13
2022-08-09T02:42:18.330Z,25.09
2022-08-09T02:44:50.246Z,25.06
2022-08-09T02:47:22.116Z,25.00
2022-08-09T02:50:01.360Z,24.96
2022-08-09T02:52:37.843Z,24.94
2022-08-09T02:55:20.102Z,24.94
2022-08-09T02:58:00.399Z,24.94
2022-08-09T03:00:58.093Z,24.93
2022-08-09T03:04:05.812Z,24.94
2022-08-09T03:06:21.420Z,24.95
2022-08-09T03:08:53.023Z,24.97
2022-08-09T03:12:04.757Z,24.99
2022-08-09T03:14:13.538Z,25.00
2022-08-09T03:16:47.755Z,25.00
2022-08-09T03:19:59.205Z,24.99
2022-08-09T03:22:11.850Z,25.00
2022-08-09T03:24:52.719Z,25.00
2022-08-09T03:27:44.692Z,25.00
2022-08-09T03:30:33.431Z,25.02
2022-08-09T03:33:17.289Z,25.03
2022-08-09T03:36:13.618Z,25.05
2022-08-09T03:38:42.446Z,25.06
2022-08-09T03:41:15.592Z,25.06
2022-08-09T03:44:03.535Z,25.05
2022-08-09T03:46:35.720Z,25.06
2022-08-09T03:49:08.744Z,25.06
2022-08-09T03:51:43.736Z,25.05
2022-08-09T03:54:31.132Z,25.04
2022-08-09T03:57:04.547Z,25.01
2022-08-09T03:59:53.277Z,25.00
2022-08-09T04:02:27.966Z,25.00
2022-08-09T04:05:05.055Z,25.00
2022-08-09T04:07:52.958Z,24.98
2022-08-09T04:10:29.099Z,24.96
2022-08-09T04:13:01.209Z,24.94
2022-08-09T04:16:18.613Z,24.96
2022-08-09T04:18:22.207Z,24.96
2022-08-09T04:20:54.442Z,24.97
2022-08-09T04:23:25.016Z,24.98
2022-08-09T04:25:55.637Z,25.01
2022-08-09T04:28:34.315Z,25.02
2022-08-09T04:31:09.457Z,25.04
2022-08-09T04:33:52.381Z,25.06
2022-08-09T04:36:27.269Z,25.07
2022-08-09T04:38:59.299Z,25.13
2022-08-09T04:41:32.856Z,25.16
2022-08-09T04:44:06.511Z,25.21
2022-08-09T04:46:59.062Z,25.21
2022-08-09T04:49:53.653Z,25.28
2022-08-09T04:52:26.982Z,25.33
2022-08-09T04:54:58.801Z,25.36
2022-08-09T04:57:53.767Z,25.39
2022-08-09T05:00:18.705Z,25.40
2022-08-09T05:02:48.605Z,25.47
2022-08-09T05:05:32.413Z,25.51
2022-08-09T05:08:13.847Z,25.58
2022-08-09T05:10:45.052Z,25.64
2022-08-09T05:13:14.582Z,25.70
2022-08-09T05:15:52.083Z,25.75
2022-08-09T05:18:38.009Z,25.81
2022-08-09T05:21:23.187Z,25.87
2022-08-09T05:24:00.883Z,25.88
2022-08-09T05:26:36.355Z,25.89
2022-08-09T05:29:06.412Z,25.90
2022-08-09T05:31:45.049Z,25.93
2022-08-09T05:34:18.070Z,25.98
2022-08-09T05:36:47.535Z,26.04
2022-08-09T05:39:28.811Z,26.10
2022-08-09T05:42:01.696Z,26.17
2022-08-09T05:44:34.847Z,26.23
2022-08-09T05:47:05.784Z,26.30
2022-08-09T05:50:25.930Z,26.37
2022-08-09T05:52:24.813Z,26.45
2022-08-09T05:54:53.784Z,26.53
2022-08-09T05:57:25.178Z,26.64
2022-08-09T06:00:14.672Z,26.77
2022-08-09T06:02:46.830Z,26.87
2022-08-09T06:05:16.319Z,27.00
2022-08-09T06:08:04.975Z,27.10
2022-08-09T06:10:40.077Z,27.20
2022-08-09T06:13:18.579Z,27.31
2022-08-09T06:15:51.753Z,27.41
2022-08-09T06:18:24.973Z,27.52
2022-08-09T06:20:57.607Z,27.62
2022-08-09T06:23:58.084Z,27.74
2022-08-09T06:26:22.405Z,27.87
2022-08-09T06:28:59.362Z,27.96
2022-08-09T06:31:39.173Z,28.05
2022-08-09T06:34:09.610Z,28.12
2022-08-09T06:36:42.877Z,28.19
2022-08-09T06:39:13.006Z,28.28
2022-08-09T06:42:09.122Z,28.37
2022-08-09T06:44:32.269Z,28.52
2022-08-09T06:47:02.298Z,28.64
2022-08-09T06:50:11.852Z,28.79
2022-08-09T06:52:20.253Z,28.93
2022-08-09T06:54:54.086Z,29.08
2022-08-09T06:57:25.897Z,29.28
2022-08-09T07:00:49.456Z,29.44
2022-08-09T07:03:05.981Z,29.51
2022-08-09T07:05:58.522Z,29.59
2022-08-09T07:08:24.861Z,29.80
2022-08-09T07:10:54.019Z,30.02
2022-08-09T07:13:28.266Z,30.27
2022-08-09T07:16:42.563Z,30.48
2022-08-09T07:18:50.159Z,30.73
2022-08-09T07:21:19.979Z,31.03
2022-08-09T07:23:57.711Z,31.31
2022-08-09T07:26:28.746Z,31.56
2022-08-09T07:29:09.264Z,31.73
2022-08-09T07:31:45.187Z,31.85
2022-08-09T07:34:20.517Z,31.89
2022-08-09T07:36:50.127Z,31.70
2022-08-09T07:39:40.452Z,31.60
2022-08-09T07:42:10.883Z,31.61
2022-08-09T07:44:52.043Z,31.70
2022-08-09T07:47:23.143Z,31.82
2022-08-09T07:50:07.959Z,32.03
2022-08-09T07:52:40.738Z,32.15
2022-08-09T07:55:12.317Z,32.31
2022-08-09T07:57:46.801Z,32.60
2022-08-09T08:00:35.412Z,32.81
2022-08-09T08:03:08.316Z,32.76
2022-08-09T08:05:53.646Z,32.76
2022-08-09T08:09:02.217Z,32.87
2022-08-09T08:12:11.321Z,33.15
2022-08-09T08:14:04.904Z,33.48
2022-08-09T08:16:36.002Z,33.66
2022-08-09T08:19:08.654Z,33.89
2022-08-09T08:21:39.496Z,34.16
2022-08-09T08:24:11.414Z,34.24
2022-08-09T08:26:55.099Z,34.34
2022-08-09T08:29:27.689Z,34.49
2022-08-09T08:32:03.182Z,34.66
2022-08-09T08:34:34.738Z,34.82
2022-08-09T08:37:05.993Z,34.82
2022-08-09T08:39:44.345Z,34.77
2022-08-09T08:42:14.036Z,34.87
2022-08-09T08:44:46.638Z,35.09
2022-08-09T08:47:15.823Z,35.28
2022-08-09T08:49:46.773Z,35.44
2022-08-09T08:52:57.457Z,35.55
2022-08-09T08:55:10.587Z,35.68
2022-08-09T08:57:39.582Z,35.88
2022-08-09T09:00:17.190Z,36.10
2022-08-09T09:03:08.799Z,36.19
2022-08-09T09:06:00.810Z,36.36
2022-08-09T09:08:37.865Z,36.65
2022-08-09T09:11:13.825Z,36.77
2022-08-09T09:13:55.188Z,36.77
2022-08-09T09:16:31.891Z,37.00
2022-08-09T09:22:03.663Z,37.17
2022-08-09T09:24:37.237Z,37.10
2022-08-09T09:27:09.739Z,37.18
2022-08-09T09:30:13.871Z,37.13
2022-08-09T09:33:02.626Z,37.04
2022-08-09T09:36:00.638Z,37.06
2022-08-09T09:38:46.566Z,37.15
2022-08-09T09:41:49.702Z,37.12
2022-08-09T09:44:31.516Z,37.18
2022-08-09T09:47:07.699Z,37.12
2022-08-09T09:50:07.075Z,37.08
2022-08-09T09:52:35.919Z,37.03
2022-08-09T09:55:23.845Z,37.06
2022-08-09T09:58:16.975Z,37.06
2022-08-09T10:00:54.707Z,37.29
2022-08-09T10:03:57.289Z,37.41
2022-08-09T10:06:31.944Z,37.46
2022-08-09T10:09:21.897Z,37.50
2022-08-09T10:12:12.020Z,37.19
2022-08-09T10:14:48.445Z,37.16
2022-08-09T10:17:40.004Z,37.29
2022-08-09T10:20:32.875Z,37.11
2022-08-09T10:23:20.268Z,36.89
2022-08-09T10:26:06.650Z,37.08
2022-08-09T10:28:40.134Z,37.27
2022-08-09T10:34:10.615Z,37.83
2022-08-09T10:36:53.834Z,38.11
2022-08-09T10:39:28.446Z,38.34
2022-08-09T10:41:57.982Z,38.45
2022-08-09T10:44:30.172Z,38.10
2022-08-09T10:48:19.450Z,37.59
2022-08-09T10:50:31.198Z,37.24
2022-08-09T10:53:10.327Z,37.12
2022-08-09T10:55:58.134Z,36.94
2022-08-09T10:58:33.665Z,36.87
2022-08-09T11:03:06.571Z,36.89
2022-08-09T11:04:30.968Z,36.87
2022-08-09T11:07:57.007Z,36.91
2022-08-09T11:10:54.359Z,36.93
2022-08-09T11:13:54.073Z,36.88
2022-08-09T11:16:38.250Z,36.84
2022-08-09T11:19:10.361Z,36.84
2022-08-09T11:22:05.515Z,36.82
2022-08-09T11:25:08.237Z,36.78
2022-08-09T11:28:05.637Z,36.67
2022-08-09T11:30:35.633Z,36.42
2022-08-09T11:33:09.589Z,36.25
2022-08-09T11:35:50.271Z,36.17
2022-08-09T11:38:32.015Z,36.11
2022-08-09T11:41:27.857Z,36.10
2022-08-09T11:44:08.162Z,36.10
2022-08-09T11:46:54.557Z,36.05
2022-08-09T11:50:56.995Z,35.91
2022-08-09T11:53:44.041Z,35.77
2022-08-09T11:56:34.377Z,35.53
2022-08-09T11:59:23.788Z,35.46
2022-08-09T12:02:34.483Z,35.44
2022-08-09T12:04:58.768Z,35.34
2022-08-09T12:07:41.200Z,35.19
2022-08-09T12:10:31.927Z,35.12
2022-08-09T12:13:03.669Z,35.00
2022-08-09T12:15:52.342Z,34.90
2022-08-09T12:18:26.219Z,34.77
2022-08-09T12:21:02.754Z,34.61
2022-08-09T12:23:56.216Z,34.55
2022-08-09T12:26:25.627Z,34.60
2022-08-09T12:29:11.408Z,34.63
2022-08-09T12:32:02.781Z,34.68
2022-08-09T12:34:37.734Z,34.72
2022-08-09T12:37:24.216Z,34.72
2022-08-09T12:40:01.790Z,34.71
2022-08-09T12:42:31.368Z,34.71
2022-08-09T12:45:00.831Z,34.71
2022-08-09T12:47:32.873Z,34.72
2022-08-09T12:50:17.231Z,34.67
2022-08-09T12:53:17.814Z,34.63
2022-08-09T12:56:12.653Z,34.64
2022-08-09T12:58:28.596Z,34.65
2022-08-09T13:00:58.316Z,34.63
2022-08-09T13:03:57.269Z,34.54
2022-08-09T13:06:33.959Z,34.41
2022-08-09T13:09:10.361Z,34.38
2022-08-09T13:11:44.036Z,34.39
2022-08-09T13:14:43.893Z,34.42
2022-08-09T13:17:08.421Z,34.40
2022-08-09T13:20:11.303Z,34.35
2022-08-09T13:22:38.314Z,34.36
2022-08-09T13:25:15.008Z,34.36
2022-08-09T13:27:54.471Z,34.36
2022-08-09T13:30:50.035Z,34.36
2022-08-09T13:33:22.966Z,34.37
2022-08-09T13:36:37.414Z,34.41
2022-08-09T13:38:56.556Z,34.48
2022-08-09T13:41:59.395Z,34.53
2022-08-09T13:44:17.755Z,34.50
2022-08-09T13:47:29.744Z,34.32
2022-08-09T13:49:55.716Z,34.09
2022-08-09T13:52:25.865Z,33.94
2022-08-09T13:55:00.588Z,33.86
2022-08-09T13:57:40.236Z,33.81
2022-08-09T14:00:15.556Z,33.81
2022-08-09T14:03:03.154Z,33.84
2022-08-09T14:06:00.033Z,33.87
2022-08-09T14:08:23.349Z,33.87
2022-08-09T14:10:53.501Z,33.82
2022-08-09T14:14:14.919Z,33.75
2022-08-09T14:16:15.367Z,33.71
2022-08-09T14:18:49.678Z,33.68
2022-08-09T14:21:22.574Z,33.61
2022-08-09T14:23:56.546Z,33.54
2022-08-09T14:26:30.597Z,33.56
2022-08-09T14:29:07.814Z,33.58
2022-08-09T14:31:54.867Z,33.60
2022-08-09T14:34:31.537Z,33.62
2022-08-09T14:37:06.920Z,33.65
2022-08-09T14:39:46.396Z,33.66
2022-08-09T14:42:30.530Z,33.65
2022-08-09T14:46:45.958Z,33.67
2022-08-09T14:48:02.374Z,33.73
2022-08-09T14:50:34.288Z,33.78
2022-08-09T14:53:06.157Z,33.81
2022-08-09T14:55:35.448Z,33.88
2022-08-09T14:58:05.317Z,33.92
2022-08-09T15:00:36.482Z,33.94
2022-08-09T15:03:08.787Z,33.97
2022-08-09T15:05:39.935Z,34.00
2022-08-09T15:08:19.409Z,34.01
2022-08-09T15:11:00.704Z,34.03
2022-08-09T15:13:48.133Z,34.02
2022-08-09T15:16:22.622Z,33.94
2022-08-09T15:18:52.279Z,33.89
2022-08-09T15:21:56.349Z,33.88
2022-08-09T15:24:12.996Z,33.88
2022-08-09T15:26:46.814Z,33.89
2022-08-09T15:30:59.980Z,33.89
2022-08-09T15:32:06.272Z,33.88
2022-08-09T15:34:55.388Z,33.88
2022-08-09T15:37:57.387Z,33.88
2022-08-09T15:40:32.321Z,33.87
2022-08-09T15:43:02.655Z,33.82
2022-08-09T15:46:07.382Z,33.74
2022-08-09T15:48:28.743Z,33.70
2022-08-09T15:50:59.668Z,33.69
2022-08-09T15:54:03.801Z,33.70
2022-08-09T15:56:23.400Z,33.67
2022-08-09T15:58:58.497Z,33.64
2022-08-09T16:01:27.451Z,33.61
2022-08-09T16:04:00.547Z,33.59
2022-08-09T16:06:35.435Z,33.56
2022-08-09T16:09:06.810Z,33.52
2022-08-09T16:11:35.717Z,33.52
2022-08-09T16:14:08.008Z,33.48
2022-08-09T16:16:39.078Z,33.44
2022-08-09T16:19:13.461Z,33.38
2022-08-09T16:21:48.515Z,33.32
2022-08-09T16:24:29.928Z,33.27
2022-08-09T16:27:04.975Z,33.19
2022-08-09T16:29:38.004Z,33.20
2022-08-09T16:32:34.463Z,33.16
2022-08-09T16:35:05.448Z,33.12
2022-08-09T16:37:54.756Z,33.08
2022-08-09T16:40:39.859Z,33.05
2022-08-09T16:43:10.429Z,33.02
2022-08-09T16:45:43.693Z,32.98
2022-08-09T16:48:40.748Z,32.93
2022-08-09T16:51:08.294Z,32.85
2022-08-09T16:54:09.029Z,32.77
2022-08-09T16:56:32.908Z,32.71
2022-08-09T16:59:06.702Z,32.65
2022-08-09T17:01:43.861Z,32.61
2022-08-09T17:04:26.019Z,32.56
2022-08-09T17:08:40.190Z,32.54
2022-08-09T17:09:47.806Z,32.51
2022-08-09T17:12:18.964Z,32.48
2022-08-09T17:14:49.930Z,32.45
2022-08-09T17:17:27.047Z,32.42
2022-08-09T17:20:28.496Z,32.36
2022-08-09T17:22:50.047Z,32.32
2022-08-09T17:25:20.181Z,32.29
2022-08-09T17:27:53.847Z,32.26
2022-08-09T17:30:26.407Z,32.22
2022-08-09T17:33:04.699Z,32.18
2022-08-09T17:35:36.033Z,32.13
2022-08-09T17:38:13.971Z,32.08
2022-08-09T17:40:58.962Z,32.00
2022-08-09T17:43:33.843Z,31.90
2022-08-09T17:46:09.133Z,31.80
2022-08-09T17:48:40.509Z,31.68
2022-08-09T17:51:21.932Z,31.56
2022-08-09T17:53:54.934Z,31.46
2022-08-09T17:56:27.885Z,31.38
2022-08-09T17:59:00.794Z,31.31
2022-08-09T18:02:03.430Z,31.22
2022-08-09T18:04:20.280Z,31.12
2022-08-09T18:06:54.487Z,30.98
2022-08-09T18:09:40.481Z,30.90
2022-08-09T18:12:15.039Z,30.84
2022-08-09T18:14:49.816Z,30.80
2022-08-09T18:17:27.599Z,30.76
2022-08-09T18:20:54.928Z,30.68
2022-08-09T18:23:05.755Z,30.62
2022-08-09T18:25:50.301Z,30.61
2022-08-09T18:30:35.571Z,30.62
2022-08-09T18:31:13.088Z,30.61
2022-08-09T18:33:45.197Z,30.60
2022-08-09T18:36:32.017Z,30.57
2022-08-09T18:39:03.260Z,30.55
2022-08-09T18:41:34.334Z,30.53
2022-08-09T18:44:13.275Z,30.49
2022-08-09T18:46:51.308Z,30.46
2022-08-09T18:49:41.667Z,30.42
2022-08-09T18:52:13.341Z,30.33
2022-08-09T18:54:52.635Z,30.27
2022-08-09T18:57:23.851Z,30.21
2022-08-09T18:59:57.639Z,30.15
2022-08-09T19:02:30.627Z,30.07
2022-08-09T19:05:04.313Z,30.01
2022-08-09T19:08:04.515Z,29.93
2022-08-09T19:10:37.882Z,29.90
2022-08-09T19:13:16.533Z,29.86
2022-08-09T19:15:52.843Z,29.79
2022-08-09T19:18:33.368Z,29.72
2022-08-09T19:21:09.604Z,29.64
2022-08-09T19:24:32.714Z,29.53
2022-08-09T19:26:32.606Z,29.42
2022-08-09T19:29:15.064Z,29.34
2022-08-09T19:31:49.402Z,29.28
2022-08-09T19:34:24.365Z,29.24
2022-08-09T19:36:54.856Z,29.20
2022-08-09T19:39:28.893Z,29.17
2022-08-09T19:42:14.635Z,29.14
2022-08-09T19:44:49.409Z,29.08
2022-08-09T19:47:23.721Z,29.03
2022-08-09T19:50:09.149Z,28.99
2022-08-09T19:52:51.902Z,28.93
2022-08-09T19:55:25.766Z,28.87
2022-08-09T19:58:16.743Z,28.80
2022-08-09T20:00:46.463Z,28.72
2022-08-09T20:04:17.373Z,28.69
2022-08-09T20:06:05.665Z,28.63
2022-08-09T20:08:56.745Z,28.55
2022-08-09T20:11:27.121Z,28.50
2022-08-09T20:14:02.910Z,28.46
2022-08-09T20:16:50.267Z,28.43
2022-08-09T20:19:48.424Z,28.40
2022-08-09T20:22:14.541Z,28.37
2022-08-09T20:24:54.061Z,28.32
2022-08-09T20:27:23.683Z,28.26
2022-08-09T20:29:52.639Z,28.21
2022-08-09T20:32:30.830Z,28.11
2022-08-09T20:35:02.334Z,28.06
2022-08-09T20:38:19.748Z,27.98
2022-08-09T20:40:27.185Z,27.91
2022-08-09T20:42:59.874Z,27.82
2022-08-09T20:45:59.800Z,27.74
2022-08-09T20:48:21.379Z,27.65
2022-08-09T20:50:55.800Z,27.58
2022-08-09T20:53:37.058Z,27.52
2022-08-09T20:56:09.346Z,27.45
2022-08-09T20:58:54.248Z,27.38
2022-08-09T21:01:35.351Z,27.27
2022-08-09T21:05:52.141Z,27.21
2022-08-09T21:07:13.240Z,27.13
2022-08-09T21:09:56.869Z,27.07
2022-08-09T21:15:23.881Z,26.99
2022-08-09T21:18:21.642Z,26.93
2022-08-09T21:20:54.496Z,26.89
2022-08-09T21:23:36.067Z,26.85
2022-08-09T21:26:15.410Z,26.80
2022-08-09T21:28:51.800Z,26.77
2022-08-09T21:31:49.137Z,26.69
2022-08-09T21:34:21.055Z,26.65
2022-08-09T21:36:58.050Z,26.61
2022-08-09T21:39:28.303Z,26.60
2022-08-09T21:42:11.688Z,26.59
2022-08-09T21:44:42.620Z,26.56
2022-08-09T21:47:17.548Z,26.51
2022-08-09T21:49:47.415Z,26.45
2022-08-09T21:52:20.278Z,26.36
2022-08-09T21:55:03.512Z,26.29
2022-08-09T21:57:38.815Z,26.27
2022-08-09T22:00:31.813Z,26.25
2022-08-09T22:03:04.614Z,26.23
2022-08-09T22:05:37.563Z,26.20
2022-08-09T22:08:14.807Z,26.15
2022-08-09T22:11:04.807Z,26.10
2022-08-09T22:13:35.640Z,26.05
2022-08-09T22:16:08.526Z,26.00
2022-08-09T22:18:52.180Z,25.94
2022-08-09T22:21:24.490Z,25.88
2022-08-09T22:23:59.025Z,25.82
2022-08-09T22:26:35.324Z,25.79
2022-08-09T22:29:09.126Z,25.78
2022-08-09T22:31:50.390Z,25.77
2022-08-09T22:34:27.074Z,25.74
2022-08-09T22:36:57.436Z,25.72
2022-08-09T22:39:55.383Z,25.68
2022-08-09T22:42:22.016Z,25.67
2022-08-09T22:48:04.533Z,25.66
2022-08-09T22:48:12.788Z,25.67
2022-08-09T22:50:32.062Z,25.65
2022-08-09T22:53:03.231Z,25.63
2022-08-09T22:56:06.314Z,25.61
2022-08-09T22:58:33.078Z,25.57
2022-08-09T23:01:03.698Z,25.43
2022-08-09T23:04:05.628Z,25.33
2022-08-09T23:06:35.430Z,25.20
2022-08-09T23:09:07.159Z,25.08
2022-08-09T23:11:36.210Z,24.99
2022-08-09T23:14:09.995Z,24.98
2022-08-09T23:16:39.383Z,24.91
2022-08-09T23:19:08.264Z,24.86
2022-08-09T23:21:38.545Z,24.86
2022-08-09T23:24:09.120Z,24.84
2022-08-09T23:26:39.141Z,24.81
2022-08-09T23:29:10.894Z,24.80
2022-08-09T23:31:40.314Z,24.74
2022-08-09T23:34:09.320Z,24.65
2022-08-09T23:36:38.295Z,24.62
2022-08-09T23:39:07.635Z,24.57
2022-08-09T23:41:36.680Z,24.47
2022-08-09T23:44:05.885Z,24.35
2022-08-09T23:46:34.760Z,24.31
2022-08-09T23:49:03.865Z,24.22
2022-08-09T23:51:32.652Z,24.16
2022-08-09T23:54:02.717Z,24.15
2022-08-09T23:56:52.833Z,24.13
2022-08-09T23:59:23.191Z,24.10
